createdAt,value
2019-04-25T00:05:03.107Z,11.21
2019-04-25T00:10:22.056Z,11.22
2019-04-25T00:12:51.786Z,11.21
2019-04-25T00:15:39.947Z,11.20
2019-04-25T00:18:27.320Z,11.20
2019-04-25T00:24:04.281Z,11.16
2019-04-25T00:26:52.211Z,11.12
2019-04-25T00:29:38.740Z,11.09
2019-04-25T00:34:45.429Z,11.09
2019-04-25T00:37:32.381Z,11.02
2019-04-25T00:40:01.625Z,11.02
2019-04-25T00:42:32.007Z,10.98
2019-04-25T00:44:59.671Z,10.95
2019-04-25T00:47:46.276Z,10.89
2019-04-25T00:50:13.834Z,10.89
2019-04-25T00:53:01.203Z,10.85
2019-04-25T00:55:31.345Z,10.85
2019-04-25T00:58:18.207Z,10.94
2019-04-25T01:01:04.563Z,10.94
2019-04-25T01:06:06.579Z,10.90
2019-04-25T01:08:34.651Z,10.87
2019-04-25T01:11:02.418Z,10.83
2019-04-25T01:13:48.818Z,10.78
2019-04-25T01:19:23.362Z,10.72
2019-04-25T01:22:09.732Z,10.59
2019-04-25T01:24:56.141Z,10.51
2019-04-25T01:27:23.816Z,10.49
2019-04-25T01:30:10.462Z,10.46
2019-04-25T01:35:31.406Z,10.45
2019-04-25T01:38:17.967Z,10.46
2019-04-25T01:41:04.681Z,10.44
2019-04-25T01:43:53.142Z,10.44
2019-04-25T01:51:43.717Z,10.51
2019-04-25T01:57:04.422Z,10.61
2019-04-25T01:59:33.816Z,10.61
2019-04-25T02:04:37.295Z,10.69
2019-04-25T02:07:23.987Z,10.79
2019-04-25T02:09:53.606Z,10.84
2019-04-25T02:12:40.067Z,10.85
2019-04-25T02:29:00.610Z,10.79
2019-04-25T02:31:46.880Z,10.79
2019-04-25T02:34:34.643Z,10.76
2019-04-25T02:37:05.637Z,10.77
2019-04-25T02:39:50.853Z,10.77
2019-04-25T02:42:18.595Z,10.77
2019-04-25T02:47:58.475Z,10.88
2019-04-25T02:50:46.248Z,10.95
2019-04-25T02:53:36.511Z,11.03
2019-04-25T02:56:05.002Z,11.03
2019-04-25T02:58:50.158Z,11.18
2019-04-25T03:03:57.458Z,11.23
2019-04-25T03:06:25.205Z,11.27
2019-04-25T03:08:55.139Z,11.28
2019-04-25T03:11:41.521Z,11.32
2019-04-25T03:14:28.308Z,11.41
2019-04-25T03:17:16.384Z,11.44
2019-04-25T03:20:06.507Z,11.44
2019-04-25T03:25:39.106Z,11.49
2019-04-25T03:28:07.263Z,11.49
2019-04-25T03:30:57.272Z,11.53
2019-04-25T03:33:25.894Z,11.53
2019-04-25T03:36:13.986Z,11.54
2019-04-25T03:38:44.064Z,11.54
2019-04-25T03:43:58.289Z,11.55
2019-04-25T03:46:44.699Z,11.55
2019-04-25T03:49:13.905Z,11.56
2019-04-25T03:54:34.611Z,11.57
2019-04-25T03:57:04.863Z,11.57
2019-04-25T03:59:50.585Z,11.59
2019-04-25T04:02:18.158Z,11.57
2019-04-25T04:05:05.951Z,11.51
2019-04-25T04:07:34.230Z,11.51
2019-04-25T04:10:21.238Z,11.50
2019-04-25T04:12:49.944Z,11.50
2019-04-25T04:15:36.498Z,11.47
2019-04-25T04:18:09.413Z,11.45
2019-04-25T04:20:55.777Z,11.45
2019-04-25T04:23:43.033Z,11.46
2019-04-25T04:28:46.036Z,11.45
2019-04-25T04:31:33.577Z,11.42
2019-04-25T04:34:01.736Z,11.42
2019-04-25T04:36:29.749Z,11.44
2019-04-25T04:39:16.855Z,11.45
2019-04-25T04:41:45.517Z,11.49
2019-04-25T04:44:31.967Z,11.51
2019-04-25T04:46:59.573Z,11.56
2019-04-25T04:49:45.910Z,11.56
2019-04-25T04:52:27.430Z,11.61
2019-04-25T04:57:32.264Z,11.77
2019-04-25T05:00:14.156Z,11.83
2019-04-25T05:03:00.400Z,11.83
2019-04-25T05:05:46.856Z,11.90
2019-04-25T05:08:33.838Z,12.04
2019-04-25T05:11:23.562Z,12.04
2019-04-25T05:14:09.416Z,12.24
2019-04-25T05:16:55.794Z,12.24
2019-04-25T05:19:23.886Z,12.43
2019-04-25T05:22:13.008Z,12.52
2019-04-25T05:24:41.513Z,12.52
2019-04-25T05:27:37.125Z,12.66
2019-04-25T05:30:17.005Z,12.77
2019-04-25T05:33:04.077Z,12.99
2019-04-25T05:35:33.162Z,13.11
2019-04-25T05:38:23.700Z,13.11
2019-04-25T05:41:09.763Z,13.32
2019-04-25T05:43:56.200Z,13.32
2019-04-25T05:46:25.391Z,13.41
2019-04-25T05:49:13.723Z,13.43
2019-04-25T05:51:41.169Z,13.46
2019-04-25T05:54:27.510Z,13.57
2019-04-25T05:56:55.129Z,13.57
2019-04-25T05:59:41.429Z,13.75
2019-04-25T06:02:09.165Z,13.75
2019-04-25T06:04:36.789Z,13.94
2019-04-25T06:07:25.442Z,14.02
2019-04-25T06:10:11.168Z,14.02
2019-04-25T06:12:57.532Z,14.13
2019-04-25T06:18:21.219Z,13.95
2019-04-25T06:20:48.826Z,13.95
2019-04-25T06:23:35.190Z,13.85
2019-04-25T06:26:17.188Z,13.80
2019-04-25T06:28:57.034Z,13.86
2019-04-25T06:34:28.483Z,13.96
2019-04-25T06:36:56.434Z,14.12
2019-04-25T06:39:25.326Z,14.27
2019-04-25T06:41:54.046Z,14.52
2019-04-25T06:44:34.596Z,14.57
2019-04-25T06:47:24.540Z,14.57
2019-04-25T06:50:09.126Z,14.75
2019-04-25T06:52:36.744Z,14.92
2019-04-25T06:55:04.443Z,14.92
2019-04-25T06:57:50.823Z,15.02
2019-04-25T07:03:15.654Z,15.04
2019-04-25T07:05:46.278Z,15.01
2019-04-25T07:08:14.063Z,14.98
2019-04-25T07:10:41.614Z,14.93
2019-04-25T07:13:12.130Z,14.93
2019-04-25T07:15:40.479Z,15.19
2019-04-25T07:18:08.085Z,15.19
2019-04-25T07:20:38.111Z,15.45
2019-04-25T07:23:08.577Z,15.67
2019-04-25T07:25:39.225Z,15.78
2019-04-25T07:28:30.835Z,15.87
2019-04-25T07:31:14.712Z,15.89
2019-04-25T07:33:51.209Z,15.92
2019-04-25T07:36:19.022Z,15.92
2019-04-25T07:38:46.638Z,15.96
2019-04-25T07:41:16.258Z,16.04
2019-04-25T07:43:43.652Z,16.04
2019-04-25T07:46:11.236Z,16.10
2019-04-25T07:48:41.102Z,16.22
2019-04-25T07:51:08.959Z,16.38
2019-04-25T07:53:37.515Z,16.82
2019-04-25T07:56:05.059Z,16.82
2019-04-25T07:58:50.385Z,16.98
2019-04-25T08:01:11.337Z,17.00
2019-04-25T08:03:40.846Z,17.00
2019-04-25T08:06:08.329Z,17.01
2019-04-25T08:08:36.087Z,16.97
2019-04-25T08:11:05.007Z,16.95
2019-04-25T08:13:43.673Z,17.08
2019-04-25T08:16:11.317Z,17.08
2019-04-25T08:18:39.072Z,17.19
2019-04-25T08:21:06.678Z,17.32
2019-04-25T08:23:36.725Z,17.39
2019-04-25T08:26:08.168Z,17.62
2019-04-25T08:28:48.925Z,17.65
2019-04-25T08:31:07.538Z,17.65
2019-04-25T08:33:35.528Z,17.72
2019-04-25T08:36:09.179Z,17.90
2019-04-25T08:38:36.119Z,17.92
2019-04-25T08:41:04.092Z,17.91
2019-04-25T08:43:32.564Z,17.93
2019-04-25T08:46:01.653Z,17.93
2019-04-25T08:48:34.500Z,17.91
2019-04-25T08:51:04.439Z,17.92
2019-04-25T08:53:38.946Z,17.96
2019-04-25T08:56:28.541Z,17.96
2019-04-25T08:59:18.321Z,17.94
2019-04-25T09:01:55.732Z,17.94
2019-04-25T09:04:44.523Z,18.31
2019-04-25T09:07:13.471Z,18.31
2019-04-25T09:09:45.178Z,18.86
2019-04-25T09:12:14.051Z,18.86
2019-04-25T09:14:41.593Z,18.98
2019-04-25T09:17:09.482Z,18.86
2019-04-25T09:19:38.166Z,18.71
2019-04-25T09:22:05.960Z,18.39
2019-04-25T09:24:36.726Z,18.39
2019-04-25T09:27:03.715Z,18.27
2019-04-25T09:29:31.236Z,18.13
2019-04-25T09:32:03.663Z,18.13
2019-04-25T09:34:31.335Z,17.97
2019-04-25T09:36:58.964Z,17.97
2019-04-25T09:39:41.049Z,17.87
2019-04-25T09:42:08.738Z,17.81
2019-04-25T09:44:46.668Z,17.76
2019-04-25T09:47:14.234Z,17.75
2019-04-25T09:49:43.838Z,17.75
2019-04-25T09:52:17.876Z,17.72
2019-04-25T09:54:50.688Z,17.71
2019-04-25T09:57:37.488Z,17.71
2019-04-25T10:00:13.187Z,17.73
2019-04-25T10:02:55.520Z,17.75
2019-04-25T10:05:23.922Z,18.07
2019-04-25T10:07:53.226Z,18.44
2019-04-25T10:10:21.174Z,18.44
2019-04-25T10:12:48.739Z,19.35
2019-04-25T10:15:16.433Z,20.26
2019-04-25T10:17:53.411Z,21.04
2019-04-25T10:20:29.458Z,21.96
2019-04-25T10:22:53.997Z,21.58
2019-04-25T10:25:23.373Z,21.58
2019-04-25T10:27:53.773Z,21.14
2019-04-25T10:30:23.495Z,20.72
2019-04-25T10:32:51.176Z,20.47
2019-04-25T10:35:21.632Z,20.31
2019-04-25T10:37:53.791Z,20.26
2019-04-25T10:40:23.404Z,20.27
2019-04-25T10:42:53.356Z,20.69
2019-04-25T10:45:24.273Z,20.69
2019-04-25T10:47:54.633Z,20.66
2019-04-25T10:50:24.169Z,20.63
2019-04-25T10:52:52.742Z,20.66
2019-04-25T10:55:23.289Z,20.61
2019-04-25T10:57:51.121Z,20.63
2019-04-25T11:00:21.132Z,20.65
2019-04-25T11:03:03.929Z,20.65
2019-04-25T11:05:31.581Z,20.62
2019-04-25T11:07:59.401Z,20.59
2019-04-25T11:10:27.167Z,20.59
2019-04-25T11:12:55.209Z,20.64
2019-04-25T11:15:24.507Z,20.98
2019-04-25T11:17:54.131Z,22.81
2019-04-25T11:20:21.443Z,22.81
2019-04-25T11:22:51.674Z,23.19
2019-04-25T11:25:19.554Z,23.08
2019-04-25T11:27:49.575Z,22.56
2019-04-25T11:30:17.348Z,22.56
2019-04-25T11:32:45.882Z,22.30
2019-04-25T11:35:15.813Z,22.01
2019-04-25T11:37:43.839Z,21.54
2019-04-25T11:40:18.168Z,21.54
2019-04-25T11:42:48.985Z,21.50
2019-04-25T11:45:19.162Z,21.58
2019-04-25T11:47:48.789Z,21.58
2019-04-25T11:50:16.656Z,21.85
2019-04-25T11:52:44.210Z,21.85
2019-04-25T11:55:11.949Z,24.30
2019-04-25T11:57:39.799Z,24.30
2019-04-25T12:00:07.469Z,26.15
2019-04-25T12:02:35.039Z,26.15
2019-04-25T12:05:02.942Z,26.05
2019-04-25T12:07:32.288Z,26.03
2019-04-25T12:09:59.879Z,26.45
2019-04-25T12:12:27.796Z,27.19
2019-04-25T12:14:56.494Z,26.72
2019-04-25T12:17:27.285Z,26.41
2019-04-25T12:19:56.193Z,26.36
2019-04-25T12:22:23.923Z,26.67
2019-04-25T12:24:52.273Z,25.94
2019-04-25T12:27:20.589Z,25.94
2019-04-25T12:29:50.089Z,25.37
2019-04-25T12:32:17.339Z,24.49
2019-04-25T12:34:45.779Z,24.49
2019-04-25T12:37:13.370Z,25.10
2019-04-25T12:39:58.187Z,25.64
2019-04-25T12:42:26.121Z,25.45
2019-04-25T12:45:06.166Z,24.87
2019-04-25T12:47:35.641Z,24.87
2019-04-25T12:50:06.665Z,25.03
2019-04-25T12:52:34.265Z,26.18
2019-04-25T12:55:03.955Z,27.24
2019-04-25T12:57:31.433Z,27.26
2019-04-25T12:59:59.243Z,27.04
2019-04-25T13:02:27.231Z,26.99
2019-04-25T13:04:57.145Z,26.56
2019-04-25T13:07:24.761Z,25.80
2019-04-25T13:09:53.599Z,25.20
2019-04-25T13:12:23.360Z,24.84
2019-04-25T13:14:51.050Z,24.94
2019-04-25T13:17:24.100Z,24.94
2019-04-25T13:19:54.409Z,24.84
2019-04-25T13:22:25.104Z,24.93
2019-04-25T13:24:52.636Z,24.96
2019-04-25T13:27:33.667Z,24.98
2019-04-25T13:30:20.340Z,24.96
2019-04-25T13:33:02.156Z,25.23
2019-04-25T13:35:36.805Z,25.51
2019-04-25T13:38:05.705Z,25.52
2019-04-25T13:40:33.231Z,25.98
2019-04-25T13:43:04.554Z,25.66
2019-04-25T13:45:30.352Z,25.66
2019-04-25T13:47:58.145Z,25.10
2019-04-25T13:50:26.134Z,25.10
2019-04-25T13:52:58.267Z,25.36
2019-04-25T13:55:34.897Z,25.75
2019-04-25T13:58:06.283Z,25.90
2019-04-25T14:00:34.972Z,25.82
2019-04-25T14:03:02.539Z,25.83
2019-04-25T14:05:36.127Z,25.83
2019-04-25T14:08:03.743Z,26.27
2019-04-25T14:10:32.362Z,26.27
2019-04-25T14:13:00.634Z,26.22
2019-04-25T14:15:29.656Z,26.05
2019-04-25T14:18:22.898Z,26.10
2019-04-25T14:20:55.182Z,26.08
2019-04-25T14:23:24.434Z,26.12
2019-04-25T14:25:52.352Z,26.09
2019-04-25T14:28:20.898Z,26.09
2019-04-25T14:30:50.448Z,25.96
2019-04-25T14:33:18.295Z,25.99
2019-04-25T14:35:47.985Z,26.64
2019-04-25T14:38:15.495Z,26.64
2019-04-25T14:40:43.423Z,27.34
2019-04-25T14:43:15.189Z,27.97
2019-04-25T14:45:47.814Z,27.65
2019-04-25T14:48:15.701Z,27.65
2019-04-25T14:50:43.283Z,27.43
2019-04-25T14:53:15.027Z,27.39
2019-04-25T14:55:51.112Z,27.06
2019-04-25T14:58:24.007Z,26.80
2019-04-25T15:00:54.960Z,26.80
2019-04-25T15:03:23.093Z,26.44
2019-04-25T15:05:51.530Z,26.44
2019-04-25T15:08:22.178Z,26.11
2019-04-25T15:10:51.529Z,25.39
2019-04-25T15:13:21.858Z,25.08
2019-04-25T15:15:49.474Z,25.08
2019-04-25T15:18:17.101Z,24.87
2019-04-25T15:20:47.671Z,24.73
2019-04-25T15:23:15.360Z,24.68
2019-04-25T15:25:59.079Z,24.66
2019-04-25T15:28:28.068Z,24.65
2019-04-25T15:30:55.688Z,24.68
2019-04-25T15:33:26.173Z,24.63
2019-04-25T15:36:01.501Z,24.68
2019-04-25T15:38:54.023Z,24.83
2019-04-25T15:41:40.759Z,24.83
2019-04-25T15:44:21.184Z,24.80
2019-04-25T15:46:51.107Z,24.61
2019-04-25T15:49:18.670Z,24.33
2019-04-25T15:51:50.396Z,23.82
2019-04-25T15:54:18.316Z,23.70
2019-04-25T15:56:49.374Z,23.70
2019-04-25T15:59:16.919Z,23.63
2019-04-25T16:01:51.848Z,23.78
2019-04-25T16:04:19.389Z,24.17
2019-04-25T16:06:47.144Z,24.17
2019-04-25T16:09:16.796Z,24.43
2019-04-25T16:11:45.323Z,24.65
2019-04-25T16:14:14.744Z,24.68
2019-04-25T16:16:42.254Z,24.62
2019-04-25T16:19:10.142Z,24.43
2019-04-25T16:21:38.020Z,24.31
2019-04-25T16:24:05.932Z,24.16
2019-04-25T16:26:33.661Z,24.16
2019-04-25T16:29:21.133Z,24.01
2019-04-25T16:31:48.821Z,23.82
2019-04-25T16:34:16.823Z,23.82
2019-04-25T16:36:50.554Z,23.75
2019-04-25T16:39:21.908Z,23.65
2019-04-25T16:41:54.228Z,23.55
2019-04-25T16:44:22.812Z,23.43
2019-04-25T16:46:51.655Z,23.20
2019-04-25T16:49:19.398Z,23.20
2019-04-25T16:51:46.921Z,23.09
2019-04-25T16:54:17.467Z,22.98
2019-04-25T16:56:45.458Z,22.86
2019-04-25T16:59:18.218Z,22.75
2019-04-25T17:01:45.991Z,22.61
2019-04-25T17:04:13.858Z,22.47
2019-04-25T17:06:41.347Z,22.24
2019-04-25T17:09:08.963Z,22.24
2019-04-25T17:11:36.789Z,21.99
2019-04-25T17:14:20.510Z,21.99
2019-04-25T17:17:05.750Z,21.76
2019-04-25T17:20:05.459Z,21.76
2019-04-25T17:22:37.100Z,21.66
2019-04-25T17:25:04.588Z,21.60
2019-04-25T17:27:33.068Z,21.59
2019-04-25T17:30:01.020Z,21.59
2019-04-25T17:32:53.981Z,21.59
2019-04-25T17:35:41.934Z,21.58
2019-04-25T17:38:19.469Z,21.54
2019-04-25T17:40:46.389Z,21.52
2019-04-25T17:43:15.763Z,21.48
2019-04-25T17:45:45.003Z,21.48
2019-04-25T17:48:12.828Z,21.44
2019-04-25T17:50:42.074Z,21.32
2019-04-25T17:53:13.531Z,21.32
2019-04-25T17:55:44.450Z,21.22
2019-04-25T17:58:12.319Z,21.22
2019-04-25T18:00:43.586Z,21.14
2019-04-25T18:03:12.459Z,21.08
2019-04-25T18:06:08.194Z,21.08
2019-04-25T18:08:37.780Z,21.04
2019-04-25T18:11:08.712Z,20.91
2019-04-25T18:13:38.837Z,20.83
2019-04-25T18:16:27.012Z,20.83
2019-04-25T18:19:06.101Z,20.71
2019-04-25T18:21:52.467Z,20.57
2019-04-25T18:24:39.123Z,20.29
2019-04-25T18:27:29.419Z,20.29
2019-04-25T18:29:57.183Z,20.16
2019-04-25T18:35:31.814Z,19.57
2019-04-25T18:38:18.165Z,19.57
2019-04-25T18:41:04.733Z,19.37
2019-04-25T18:43:51.087Z,19.05
2019-04-25T18:46:38.275Z,19.05
2019-04-25T18:49:25.538Z,18.93
2019-04-25T18:54:47.334Z,18.66
2019-04-25T19:00:39.185Z,18.59
2019-04-25T19:03:39.645Z,18.50
2019-04-25T19:09:01.745Z,18.35
2019-04-25T19:11:48.072Z,18.27
2019-04-25T19:17:24.126Z,18.15
2019-04-25T19:23:09.427Z,18.02
2019-04-25T19:25:26.210Z,17.95
2019-04-25T19:28:12.618Z,17.88
2019-04-25T19:30:41.091Z,17.82
2019-04-25T19:33:08.882Z,17.76
2019-04-25T19:35:39.370Z,17.59
2019-04-25T19:38:26.330Z,17.49
2019-04-25T19:41:12.695Z,17.40
2019-04-25T19:43:59.062Z,17.40
2019-04-25T19:52:31.423Z,17.17
2019-04-25T19:55:29.828Z,17.09
2019-04-25T19:57:48.184Z,17.02
2019-04-25T20:00:36.984Z,16.92
2019-04-25T20:03:52.243Z,16.92
2019-04-25T20:06:19.087Z,16.82
2019-04-25T20:09:17.750Z,16.82
2019-04-25T20:11:53.658Z,16.76
2019-04-25T20:14:43.944Z,16.70
2019-04-25T20:17:30.549Z,16.63
2019-04-25T20:19:58.227Z,16.54
2019-04-25T20:22:44.901Z,16.40
2019-04-25T20:25:32.742Z,16.34
2019-04-25T20:28:19.166Z,16.26
2019-04-25T20:33:38.751Z,16.20
2019-04-25T20:36:25.189Z,16.11
2019-04-25T20:39:13.993Z,16.05
2019-04-25T20:41:43.640Z,16.05
2019-04-25T20:44:30.051Z,15.92
2019-04-25T20:46:57.887Z,15.92
2019-04-25T20:49:48.724Z,15.77
2019-04-25T20:55:40.949Z,15.69
2019-04-25T20:58:08.828Z,15.51
2019-04-25T21:03:41.644Z,15.33
2019-04-25T21:09:33.213Z,15.18
2019-04-25T21:12:23.171Z,15.18
2019-04-25T21:15:09.669Z,15.12
2019-04-25T21:17:56.364Z,15.03
2019-04-25T21:23:29.204Z,14.94
2019-04-25T21:28:43.445Z,14.88
2019-04-25T21:31:31.465Z,14.86
2019-04-25T21:36:34.140Z,14.80
2019-04-25T21:42:10.234Z,14.78
2019-04-25T21:47:44.946Z,14.65
2019-04-25T21:53:04.910Z,14.57
2019-04-25T21:55:51.494Z,14.51
2019-04-25T21:58:39.568Z,14.51
2019-04-25T22:01:25.933Z,14.44
2019-04-25T22:06:28.233Z,14.33
2019-04-25T22:09:14.577Z,14.26
2019-04-25T22:12:01.246Z,14.26
2019-04-25T22:14:28.810Z,14.22
2019-04-25T22:16:58.896Z,14.18
2019-04-25T22:19:28.033Z,14.08
2019-04-25T22:22:16.118Z,14.05
2019-04-25T22:24:46.315Z,14.05
2019-04-25T22:27:32.842Z,14.02
2019-04-25T22:30:01.403Z,14.00
2019-04-25T22:32:48.698Z,13.98
2019-04-25T22:35:35.072Z,13.92
2019-04-25T22:38:21.676Z,13.89
2019-04-25T22:46:26.049Z,13.78
2019-04-25T22:49:07.626Z,13.72
2019-04-25T22:51:54.567Z,13.57
2019-04-25T22:54:40.988Z,13.57
2019-04-25T23:00:14.342Z,13.49
2019-04-25T23:05:55.341Z,13.47
2019-04-25T23:11:30.314Z,13.42
2019-04-25T23:13:59.633Z,13.42
2019-04-25T23:16:28.960Z,13.37
2019-04-25T23:19:15.339Z,13.29
2019-04-25T23:22:14.204Z,13.29
2019-04-25T23:27:39.741Z,13.20
2019-04-25T23:32:55.553Z,13.21
2019-04-25T23:35:32.252Z,13.23
2019-04-25T23:37:52.527Z,13.23
2019-04-25T23:40:20.277Z,13.22
2019-04-25T23:43:07.544Z,13.23
2019-04-25T23:45:36.281Z,13.21
2019-04-25T23:48:04.053Z,13.21
2019-04-25T23:50:53.619Z,13.16
2019-04-25T23:53:40.117Z,13.16
2019-04-25T23:56:07.811Z,13.16
2019-04-25T23:58:37.493Z,13.15
